Terminal Aerodrome Forecast
Issued by NWS

Home | Current Version | Previous Version | Text Only | Print | Product List | Glossary Off
Versions: 1 2 3 4 5 6 7 8 9 10 11 12 13 14

162
FTUS43 KTOP 221120
TAFFOE
TAF
KFOE 221120Z 2212/2312 19007KT P6SM SCT200
     FM221500 18012KT P6SM FEW200
     FM230600 36010KT P6SM VCTS BKN050CB
     FM230900 01008KT P6SM VCTS BKN030CB=

USA.gov is the U.S. government's official web portal to all federal, state and local government web resources and services.